createdAt,value
2019-05-03T00:01:35.931Z,99.90
2019-05-03T00:04:06.178Z,99.90
2019-05-03T00:06:38.654Z,99.90
2019-05-03T00:09:12.016Z,99.90
2019-05-03T00:11:42.264Z,99.90
2019-05-03T00:14:14.140Z,99.90
2019-05-03T00:16:45.945Z,99.90
2019-05-03T00:19:17.283Z,99.90
2019-05-03T00:21:47.046Z,99.90
2019-05-03T00:24:16.869Z,99.90
2019-05-03T00:26:46.778Z,99.90
2019-05-03T00:29:16.658Z,99.90
2019-05-03T00:31:48.115Z,99.90
2019-05-03T00:34:22.165Z,99.90
2019-05-03T00:36:55.058Z,99.90
2019-05-03T00:39:29.731Z,99.90
2019-05-03T00:41:59.435Z,99.90
2019-05-03T00:44:29.152Z,99.90
2019-05-03T00:46:58.934Z,99.90
2019-05-03T00:49:28.651Z,99.90
2019-05-03T00:51:58.394Z,99.90
2019-05-03T00:54:28.088Z,99.90
2019-05-03T00:56:58.079Z,99.90
2019-05-03T00:59:28.206Z,99.90
2019-05-03T01:02:02.721Z,99.90
2019-05-03T01:04:34.400Z,99.90
2019-05-03T01:07:04.125Z,99.90
2019-05-03T01:09:33.802Z,99.90
2019-05-03T01:12:03.663Z,99.90
2019-05-03T01:14:34.574Z,99.90
2019-05-03T01:17:04.635Z,99.70
2019-05-03T01:19:34.519Z,98.90
2019-05-03T01:22:04.420Z,99.00
2019-05-03T01:24:34.096Z,98.80
2019-05-03T01:27:04.496Z,98.40
2019-05-03T01:29:34.346Z,97.80
2019-05-03T01:32:04.261Z,97.50
2019-05-03T01:34:34.217Z,96.70
2019-05-03T01:37:04.278Z,96.90
2019-05-03T01:39:34.186Z,95.30
2019-05-03T01:42:04.077Z,92.80
2019-05-03T01:44:34.004Z,93.30
2019-05-03T01:47:06.914Z,93.20
2019-05-03T01:49:43.950Z,93.00
2019-05-03T01:52:42.077Z,93.10
2019-05-03T01:55:15.845Z,93.10
2019-05-03T01:57:47.210Z,93.10
2019-05-03T02:00:24.308Z,92.70
2019-05-03T02:03:12.380Z,92.90
2019-05-03T02:05:48.695Z,93.10
2019-05-03T02:08:18.450Z,93.40
2019-05-03T02:10:48.922Z,93.30
2019-05-03T02:13:18.798Z,93.20
2019-05-03T02:15:48.638Z,93.30
2019-05-03T02:18:18.874Z,93.40
2019-05-03T02:20:48.856Z,92.70
2019-05-03T02:23:18.574Z,92.60
2019-05-03T02:25:56.056Z,92.30
2019-05-03T02:28:19.777Z,91.40
2019-05-03T02:30:49.775Z,91.40
2019-05-03T02:33:19.661Z,91.80
2019-05-03T02:35:49.960Z,92.00
2019-05-03T02:38:20.056Z,92.20
2019-05-03T02:40:53.018Z,92.70
2019-05-03T02:43:36.557Z,92.90
2019-05-03T02:46:17.210Z,93.30
2019-05-03T02:49:09.167Z,93.70
2019-05-03T02:51:39.146Z,94.00
2019-05-03T02:54:08.951Z,94.50
2019-05-03T02:56:38.827Z,94.60
2019-05-03T02:59:08.747Z,94.70
2019-05-03T03:01:47.611Z,94.90
2019-05-03T03:04:18.659Z,95.20
2019-05-03T03:06:51.801Z,95.70
2019-05-03T03:09:25.995Z,96.10
2019-05-03T03:11:57.919Z,96.40
2019-05-03T03:14:30.159Z,96.90
2019-05-03T03:17:07.276Z,96.70
2019-05-03T03:19:45.971Z,97.00
2019-05-03T03:22:22.329Z,97.50
2019-05-03T03:24:56.065Z,97.80
2019-05-03T03:27:29.516Z,97.30
2019-05-03T03:30:28.356Z,97.30
2019-05-03T03:32:57.835Z,96.80
2019-05-03T03:35:31.304Z,97.10
2019-05-03T03:38:05.736Z,97.00
2019-05-03T03:40:35.983Z,97.40
2019-05-03T03:43:06.017Z,97.80
2019-05-03T03:45:37.440Z,97.90
2019-05-03T03:48:07.934Z,98.00
2019-05-03T03:50:39.338Z,98.10
2019-05-03T03:53:15.635Z,98.40
2019-05-03T03:55:48.464Z,98.20
2019-05-03T03:58:22.915Z,98.50
2019-05-03T04:00:51.649Z,98.60
2019-05-03T04:03:25.667Z,98.50
2019-05-03T04:05:55.565Z,98.80
2019-05-03T04:08:28.724Z,99.10
2019-05-03T04:10:58.651Z,99.10
2019-05-03T04:13:29.683Z,99.20
2019-05-03T04:16:36.427Z,99.30
2019-05-03T04:19:14.100Z,99.50
2019-05-03T04:21:47.135Z,99.50
2019-05-03T04:24:20.117Z,99.50
2019-05-03T04:26:56.210Z,99.50
2019-05-03T04:29:25.826Z,99.50
2019-05-03T04:31:56.651Z,99.60
2019-05-03T04:34:26.990Z,99.60
2019-05-03T04:36:57.008Z,99.70
2019-05-03T04:39:28.844Z,99.70
2019-05-03T04:42:06.657Z,99.70
2019-05-03T04:44:36.464Z,99.80
2019-05-03T04:47:07.174Z,99.80
2019-05-03T04:49:37.280Z,99.80
2019-05-03T04:52:07.320Z,99.70
2019-05-03T04:54:45.386Z,99.70
2019-05-03T04:57:16.001Z,99.60
2019-05-03T04:59:49.052Z,99.50
2019-05-03T05:02:18.927Z,99.80
2019-05-03T05:04:48.876Z,99.80
2019-05-03T05:07:18.958Z,99.80
2019-05-03T05:09:51.555Z,99.90
2019-05-03T05:12:21.790Z,99.90
2019-05-03T05:14:52.026Z,99.90
2019-05-03T05:17:35.459Z,99.90
2019-05-03T05:20:18.244Z,99.90
2019-05-03T05:22:48.213Z,99.90
2019-05-03T05:25:20.620Z,99.90
2019-05-03T05:28:18.502Z,99.90
2019-05-03T05:30:54.509Z,99.90
2019-05-03T05:33:25.328Z,99.40
2019-05-03T05:35:55.312Z,98.40
2019-05-03T05:38:25.550Z,97.30
2019-05-03T05:40:55.697Z,96.50
2019-05-03T05:43:25.733Z,95.60
2019-05-03T05:45:58.642Z,94.60
2019-05-03T05:48:34.903Z,94.50
2019-05-03T05:51:04.601Z,94.10
2019-05-03T05:53:35.859Z,93.30
2019-05-03T05:56:15.827Z,93.10
2019-05-03T05:58:55.447Z,93.80
2019-05-03T06:01:35.310Z,94.30
2019-05-03T06:04:05.516Z,94.20
2019-05-03T06:07:04.594Z,92.90
2019-05-03T06:09:54.991Z,92.00
2019-05-03T06:12:35.284Z,91.60
2019-05-03T06:15:11.602Z,91.30
2019-05-03T06:17:46.763Z,90.90
2019-05-03T06:20:24.459Z,89.90
2019-05-03T06:23:05.277Z,90.00
2019-05-03T06:25:38.526Z,88.80
2019-05-03T06:28:19.971Z,88.50
2019-05-03T06:30:54.397Z,86.90
2019-05-03T06:33:24.509Z,85.40
2019-05-03T06:35:54.728Z,83.10
2019-05-03T06:38:24.569Z,82.90
2019-05-03T06:40:54.475Z,80.90
2019-05-03T06:43:24.561Z,81.00
2019-05-03T06:45:54.910Z,79.00
2019-05-03T06:48:27.955Z,80.80
2019-05-03T06:51:00.364Z,80.00
2019-05-03T06:53:27.583Z,78.50
2019-05-03T06:55:57.381Z,78.30
2019-05-03T06:58:33.191Z,76.80
2019-05-03T07:01:25.291Z,75.50
2019-05-03T07:04:15.263Z,74.40
2019-05-03T07:07:25.996Z,73.40
2019-05-03T07:09:58.341Z,75.10
2019-05-03T07:12:47.177Z,71.90
2019-05-03T07:15:16.983Z,71.90
2019-05-03T07:17:47.007Z,72.80
2019-05-03T07:20:16.871Z,71.90
2019-05-03T07:22:46.727Z,69.20
2019-05-03T07:25:16.875Z,68.40
2019-05-03T07:27:46.713Z,68.80
2019-05-03T07:30:17.007Z,68.90
2019-05-03T07:32:49.885Z,67.50
2019-05-03T07:35:20.873Z,67.30
2019-05-03T07:37:50.712Z,66.30
2019-05-03T07:40:20.684Z,65.50
2019-05-03T07:42:50.561Z,63.70
2019-05-03T07:45:20.670Z,59.90
2019-05-03T07:47:50.434Z,60.70
2019-05-03T07:50:20.188Z,60.40
2019-05-03T07:52:49.907Z,59.50
2019-05-03T07:55:21.935Z,58.30
2019-05-03T07:57:55.531Z,58.70
2019-05-03T08:00:26.797Z,57.90
2019-05-03T08:02:56.533Z,58.20
2019-05-03T08:05:26.275Z,58.60
2019-05-03T08:07:56.157Z,56.40
2019-05-03T08:10:26.081Z,57.30
2019-05-03T08:12:55.896Z,57.10
2019-05-03T08:15:25.693Z,57.50
2019-05-03T08:17:55.568Z,58.20
2019-05-03T08:20:25.391Z,58.50
2019-05-03T08:22:55.157Z,58.20
2019-05-03T08:25:25.231Z,58.40
2019-05-03T08:27:54.982Z,58.10
2019-05-03T08:30:30.895Z,57.90
2019-05-03T08:33:24.995Z,56.70
2019-05-03T08:35:55.575Z,55.60
2019-05-03T08:38:25.730Z,54.80
2019-05-03T08:40:58.470Z,53.50
2019-05-03T08:43:28.169Z,54.50
2019-05-03T08:45:57.834Z,54.80
2019-05-03T08:48:27.626Z,54.40
2019-05-03T08:50:57.344Z,54.30
2019-05-03T08:53:27.072Z,54.50
2019-05-03T08:55:56.841Z,54.30
2019-05-03T08:58:26.629Z,52.50
2019-05-03T09:00:56.444Z,52.30
2019-05-03T09:03:26.303Z,52.60
2019-05-03T09:05:56.570Z,52.30
2019-05-03T09:08:27.349Z,52.70
2019-05-03T09:11:10.370Z,52.10
2019-05-03T09:14:08.242Z,51.40
2019-05-03T09:16:37.994Z,51.90
2019-05-03T09:19:07.882Z,52.20
2019-05-03T09:21:37.622Z,50.50
2019-05-03T09:24:07.821Z,50.60
2019-05-03T09:26:37.593Z,50.00
2019-05-03T09:29:07.466Z,48.70
2019-05-03T09:31:37.216Z,48.90
2019-05-03T09:34:08.291Z,49.60
2019-05-03T09:36:38.458Z,50.60
2019-05-03T09:39:08.826Z,50.10
2019-05-03T09:41:38.665Z,50.30
2019-05-03T09:44:08.711Z,49.10
2019-05-03T09:46:39.414Z,48.90
2019-05-03T09:49:13.875Z,48.80
2019-05-03T09:51:40.850Z,48.40
2019-05-03T09:54:18.703Z,48.00
2019-05-03T09:56:59.024Z,46.30
2019-05-03T09:59:30.104Z,47.00
2019-05-03T10:02:00.944Z,47.70
2019-05-03T10:04:30.764Z,48.40
2019-05-03T10:07:01.593Z,49.00
2019-05-03T10:09:31.319Z,48.70
2019-05-03T10:12:02.156Z,49.20
2019-05-03T10:14:31.919Z,49.30
2019-05-03T10:17:11.405Z,49.50
2019-05-03T10:19:41.185Z,50.20
2019-05-03T10:22:12.538Z,50.10
2019-05-03T10:24:42.695Z,47.80
2019-05-03T10:27:12.419Z,47.00
2019-05-03T10:29:44.582Z,46.60
2019-05-03T10:32:25.370Z,45.00
2019-05-03T10:34:57.515Z,44.40
2019-05-03T10:37:31.657Z,44.60
2019-05-03T10:40:07.253Z,44.30
2019-05-03T10:42:35.374Z,43.60
2019-05-03T10:45:06.685Z,43.50
2019-05-03T10:47:36.832Z,43.80
2019-05-03T10:50:07.449Z,43.60
2019-05-03T10:52:42.049Z,42.80
2019-05-03T10:55:11.925Z,42.40
2019-05-03T10:57:45.957Z,43.00
2019-05-03T11:00:42.482Z,43.60
2019-05-03T11:02:58.808Z,43.60
2019-05-03T11:05:28.506Z,42.60
2019-05-03T11:08:06.286Z,42.30
2019-05-03T11:10:36.353Z,41.70
2019-05-03T11:13:06.062Z,43.00
2019-05-03T11:15:35.811Z,44.30
2019-05-03T11:18:06.137Z,44.30
2019-05-03T11:20:38.485Z,43.60
2019-05-03T11:23:09.098Z,43.00
2019-05-03T11:25:39.024Z,41.90
2019-05-03T11:28:35.357Z,41.00
2019-05-03T11:31:24.837Z,39.80
2019-05-03T11:33:55.631Z,40.00
2019-05-03T11:36:37.166Z,40.30
2019-05-03T11:39:08.256Z,40.40
2019-05-03T11:41:41.529Z,40.40
2019-05-03T11:44:29.294Z,40.30
2019-05-03T11:46:59.069Z,41.10
2019-05-03T11:49:29.143Z,41.50
2019-05-03T11:51:58.941Z,40.90
2019-05-03T11:54:28.803Z,40.70
2019-05-03T11:57:00.294Z,40.60
2019-05-03T11:59:30.010Z,40.50
2019-05-03T12:02:09.113Z,40.40
2019-05-03T12:04:38.897Z,40.40
2019-05-03T12:07:08.598Z,41.00
2019-05-03T12:09:38.290Z,40.50
2019-05-03T12:12:09.835Z,41.10
2019-05-03T12:14:39.640Z,42.10
2019-05-03T12:17:19.567Z,40.10
2019-05-03T12:19:45.744Z,40.50
2019-05-03T12:22:16.575Z,40.80
2019-05-03T12:24:46.479Z,41.40
2019-05-03T12:27:16.698Z,41.30
2019-05-03T12:29:46.384Z,41.80
2019-05-03T12:32:16.070Z,41.90
2019-05-03T12:34:45.834Z,40.50
2019-05-03T12:37:15.622Z,41.30
2019-05-03T12:39:46.676Z,42.00
2019-05-03T12:42:18.814Z,42.50
2019-05-03T12:44:47.883Z,42.50
2019-05-03T12:47:17.632Z,42.00
2019-05-03T12:49:47.532Z,42.40
2019-05-03T12:52:18.142Z,42.60
2019-05-03T12:54:48.420Z,43.00
2019-05-03T12:57:18.142Z,43.90
2019-05-03T12:59:59.804Z,44.40
2019-05-03T13:02:36.776Z,44.60
2019-05-03T13:05:06.774Z,43.90
2019-05-03T13:07:45.548Z,43.90
2019-05-03T13:10:21.645Z,44.30
2019-05-03T13:12:52.820Z,42.80
2019-05-03T13:15:20.384Z,43.20
2019-05-03T13:17:50.114Z,43.90
2019-05-03T13:20:20.091Z,44.70
2019-05-03T13:22:49.825Z,45.10
2019-05-03T13:25:20.112Z,44.60
2019-05-03T13:27:49.880Z,44.50
2019-05-03T13:30:19.875Z,44.70
2019-05-03T13:32:49.622Z,44.50
2019-05-03T13:35:19.633Z,44.80
2019-05-03T13:37:49.387Z,45.30
2019-05-03T13:40:19.158Z,45.50
2019-05-03T13:42:57.116Z,46.30
2019-05-03T13:45:20.316Z,46.50
2019-05-03T13:47:50.434Z,46.60
2019-05-03T13:50:20.206Z,46.90
2019-05-03T13:52:50.279Z,46.70
2019-05-03T13:55:19.954Z,45.20
2019-05-03T13:57:49.717Z,44.60
2019-05-03T14:00:19.730Z,44.80
2019-05-03T14:02:50.657Z,45.00
2019-05-03T14:05:20.814Z,45.00
2019-05-03T14:07:50.684Z,43.00
2019-05-03T14:10:20.554Z,43.20
2019-05-03T14:12:50.418Z,43.70
2019-05-03T14:15:20.264Z,43.40
2019-05-03T14:17:50.407Z,43.50
2019-05-03T14:20:30.411Z,43.60
2019-05-03T14:23:00.290Z,43.40
2019-05-03T14:25:29.988Z,43.40
2019-05-03T14:27:59.874Z,43.30
2019-05-03T14:30:29.712Z,43.20
2019-05-03T14:32:59.639Z,43.80
2019-05-03T14:35:31.267Z,44.70
2019-05-03T14:38:01.250Z,45.70
2019-05-03T14:40:31.247Z,46.20
2019-05-03T14:43:01.155Z,47.50
2019-05-03T14:45:31.329Z,48.00
2019-05-03T14:48:01.223Z,48.80
2019-05-03T14:50:35.016Z,49.30
2019-05-03T14:53:06.919Z,50.30
2019-05-03T14:55:42.665Z,50.80
2019-05-03T14:58:30.361Z,49.40
2019-05-03T15:01:07.059Z,48.40
2019-05-03T15:03:36.887Z,48.60
2019-05-03T15:06:06.794Z,49.30
2019-05-03T15:08:37.981Z,49.50
2019-05-03T15:11:07.859Z,49.00
2019-05-03T15:13:37.775Z,49.20
2019-05-03T15:16:07.649Z,49.20
2019-05-03T15:18:37.487Z,47.80
2019-05-03T15:21:07.295Z,47.10
2019-05-03T15:23:37.055Z,46.30
2019-05-03T15:26:07.063Z,46.30
2019-05-03T15:28:36.981Z,46.70
2019-05-03T15:31:06.759Z,47.10
2019-05-03T15:33:36.469Z,47.30
2019-05-03T15:36:06.277Z,47.30
2019-05-03T15:38:36.155Z,47.30
2019-05-03T15:41:05.859Z,47.40
2019-05-03T15:44:00.807Z,48.10
2019-05-03T15:46:54.565Z,48.50
2019-05-03T15:49:27.414Z,49.10
2019-05-03T15:51:56.256Z,49.50
2019-05-03T15:54:26.995Z,49.70
2019-05-03T15:56:56.701Z,49.90
2019-05-03T15:59:27.593Z,50.20
2019-05-03T16:01:57.333Z,50.20
2019-05-03T16:04:27.145Z,50.20
2019-05-03T16:06:59.643Z,50.30
2019-05-03T16:09:29.522Z,50.70
2019-05-03T16:11:59.454Z,50.90
2019-05-03T16:14:29.458Z,50.70
2019-05-03T16:16:59.262Z,50.80
2019-05-03T16:19:29.061Z,50.80
2019-05-03T16:21:58.952Z,50.20
2019-05-03T16:24:28.720Z,50.70
2019-05-03T16:27:42.486Z,51.00
2019-05-03T16:30:45.531Z,50.90
2019-05-03T16:33:26.620Z,50.80
2019-05-03T16:35:47.031Z,51.00
2019-05-03T16:38:16.782Z,50.80
2019-05-03T16:40:46.912Z,49.50
2019-05-03T16:43:16.635Z,50.00
2019-05-03T16:45:46.742Z,50.50
2019-05-03T16:48:18.517Z,50.90
2019-05-03T16:50:48.656Z,50.90
2019-05-03T16:53:19.848Z,50.80
2019-05-03T16:55:49.614Z,49.80
2019-05-03T16:58:19.465Z,49.80
2019-05-03T17:00:49.484Z,50.00
2019-05-03T17:03:38.165Z,50.10
2019-05-03T17:06:17.840Z,50.20
2019-05-03T17:09:15.957Z,49.80
2019-05-03T17:12:06.152Z,49.40
2019-05-03T17:14:36.326Z,49.70
2019-05-03T17:17:07.265Z,50.40
2019-05-03T17:19:37.546Z,50.90
2019-05-03T17:22:07.529Z,51.20
2019-05-03T17:24:38.384Z,51.10
2019-05-03T17:27:08.912Z,50.90
2019-05-03T17:29:39.883Z,51.40
2019-05-03T17:32:11.131Z,51.60
2019-05-03T17:34:42.145Z,51.70
2019-05-03T17:37:12.001Z,51.70
2019-05-03T17:39:59.848Z,51.70
2019-05-03T17:42:47.884Z,51.60
2019-05-03T17:45:22.816Z,51.50
2019-05-03T17:47:54.775Z,51.50
2019-05-03T17:50:25.035Z,51.50
2019-05-03T17:53:10.184Z,51.80
2019-05-03T17:55:49.572Z,52.10
2019-05-03T17:58:35.916Z,52.50
2019-05-03T18:01:17.991Z,52.50
2019-05-03T18:03:49.564Z,52.70
2019-05-03T18:06:28.191Z,53.10
2019-05-03T18:09:14.899Z,53.40
2019-05-03T18:11:47.149Z,53.70
2019-05-03T18:14:16.857Z,54.20
2019-05-03T18:16:46.534Z,54.50
2019-05-03T18:19:16.421Z,54.90
2019-05-03T18:21:46.163Z,55.50
2019-05-03T18:24:16.164Z,55.20
2019-05-03T18:26:46.117Z,55.50
2019-05-03T18:29:15.893Z,55.50
2019-05-03T18:31:45.787Z,56.00
2019-05-03T18:34:19.908Z,56.20
2019-05-03T18:36:47.123Z,56.30
2019-05-03T18:39:17.189Z,56.50
2019-05-03T18:41:47.005Z,56.40
2019-05-03T18:44:22.662Z,56.50
2019-05-03T18:46:56.286Z,56.20
2019-05-03T18:49:26.000Z,56.20
2019-05-03T18:52:00.482Z,55.50
2019-05-03T18:54:30.231Z,55.50
2019-05-03T18:57:00.088Z,54.60
2019-05-03T18:59:29.883Z,54.80
2019-05-03T19:02:02.707Z,54.20
2019-05-03T19:04:39.171Z,54.10
2019-05-03T19:07:22.643Z,54.00
2019-05-03T19:10:11.629Z,53.40
2019-05-03T19:13:06.790Z,53.60
2019-05-03T19:15:38.421Z,53.50
2019-05-03T19:18:15.431Z,53.20
2019-05-03T19:20:45.604Z,53.40
2019-05-03T19:23:15.513Z,53.50
2019-05-03T19:25:49.295Z,53.50
2019-05-03T19:28:17.169Z,53.50
2019-05-03T19:30:47.392Z,53.60
2019-05-03T19:33:17.337Z,53.60
2019-05-03T19:35:50.180Z,53.70
2019-05-03T19:38:20.195Z,54.00
2019-05-03T19:40:55.665Z,54.70
2019-05-03T19:43:27.097Z,54.80
2019-05-03T19:45:57.539Z,54.60
2019-05-03T19:48:27.362Z,54.80
2019-05-03T19:50:57.333Z,55.00
2019-05-03T19:53:47.347Z,55.10
2019-05-03T19:56:20.210Z,55.40
2019-05-03T19:58:51.526Z,55.60
2019-05-03T20:01:38.335Z,55.70
2019-05-03T20:04:33.111Z,55.70
2019-05-03T20:07:28.608Z,56.00
2019-05-03T20:09:58.410Z,56.40
2019-05-03T20:12:28.318Z,56.30
2019-05-03T20:14:59.228Z,56.50
2019-05-03T20:17:29.070Z,56.40
2019-05-03T20:20:00.099Z,56.90
2019-05-03T20:22:29.834Z,57.30
2019-05-03T20:24:59.590Z,57.50
2019-05-03T20:27:29.318Z,58.50
2019-05-03T20:30:02.129Z,58.50
2019-05-03T20:32:34.496Z,58.50
2019-05-03T20:35:12.898Z,57.60
2019-05-03T20:37:36.775Z,58.70
2019-05-03T20:40:07.038Z,57.70
2019-05-03T20:43:08.262Z,57.00
2019-05-03T20:45:55.918Z,57.20
2019-05-03T20:48:26.064Z,57.40
2019-05-03T20:50:55.980Z,58.20
2019-05-03T20:53:25.737Z,57.90
2019-05-03T20:55:55.622Z,57.30
2019-05-03T20:58:26.468Z,57.50
2019-05-03T21:00:56.605Z,57.40
2019-05-03T21:03:26.412Z,57.80
2019-05-03T21:05:56.507Z,58.10
2019-05-03T21:08:26.434Z,58.40
2019-05-03T21:10:57.920Z,58.20
2019-05-03T21:13:42.024Z,58.30
2019-05-03T21:16:23.378Z,58.30
2019-05-03T21:19:13.358Z,58.60
2019-05-03T21:21:48.519Z,58.80
2019-05-03T21:24:25.934Z,59.10
2019-05-03T21:26:55.806Z,59.20
2019-05-03T21:29:26.024Z,59.40
2019-05-03T21:31:56.069Z,59.50
2019-05-03T21:34:25.964Z,59.80
2019-05-03T21:36:55.822Z,60.00
2019-05-03T21:39:28.587Z,60.40
2019-05-03T21:41:58.609Z,60.90
2019-05-03T21:44:32.617Z,61.60
2019-05-03T21:47:12.704Z,62.00
2019-05-03T21:49:45.591Z,62.00
2019-05-03T21:52:18.677Z,62.50
2019-05-03T21:54:48.720Z,62.60
2019-05-03T21:57:21.659Z,62.80
2019-05-03T21:59:51.720Z,63.20
2019-05-03T22:02:21.985Z,63.40
2019-05-03T22:04:51.820Z,63.90
2019-05-03T22:07:21.746Z,64.00
2019-05-03T22:09:51.665Z,64.10
2019-05-03T22:12:21.661Z,65.00
2019-05-03T22:15:01.421Z,64.70
2019-05-03T22:17:56.179Z,64.70
2019-05-03T22:20:32.067Z,65.20
2019-05-03T22:23:21.447Z,65.70
2019-05-03T22:25:51.336Z,66.00
2019-05-03T22:28:21.060Z,66.10
2019-05-03T22:30:50.904Z,67.00
2019-05-03T22:33:21.703Z,67.00
2019-05-03T22:36:05.527Z,67.40
2019-05-03T22:38:24.920Z,67.80
2019-05-03T22:40:55.286Z,68.40
2019-05-03T22:43:25.386Z,68.80
2019-05-03T22:45:55.135Z,69.30
2019-05-03T22:48:25.184Z,69.80
2019-05-03T22:50:57.065Z,70.40
2019-05-03T22:53:27.921Z,71.10
2019-05-03T22:56:01.264Z,72.50
2019-05-03T22:58:31.638Z,72.90
2019-05-03T23:01:01.436Z,73.30
2019-05-03T23:03:33.077Z,73.90
2019-05-03T23:06:02.854Z,75.10
2019-05-03T23:08:34.441Z,76.50
2019-05-03T23:11:05.269Z,77.90
2019-05-03T23:13:35.229Z,78.70
2019-05-03T23:16:05.273Z,80.80
2019-05-03T23:18:35.148Z,82.30
2019-05-03T23:21:10.904Z,84.70
2019-05-03T23:23:54.655Z,85.20
2019-05-03T23:26:25.655Z,86.80
2019-05-03T23:28:55.518Z,87.80
2019-05-03T23:31:26.279Z,89.90
2019-05-03T23:33:56.347Z,90.00
2019-05-03T23:36:33.266Z,90.50
2019-05-03T23:38:57.826Z,90.70
2019-05-03T23:41:28.526Z,90.90
2019-05-03T23:44:00.333Z,91.40
2019-05-03T23:46:36.284Z,91.30
2019-05-03T23:49:08.611Z,91.60
2019-05-03T23:51:52.599Z,91.80
2019-05-03T23:54:24.540Z,92.10
2019-05-03T23:56:56.931Z,92.20
2019-05-03T23:59:26.816Z,92.70
